createdAt,value
2018-08-31T00:00:44.467Z,99.90
2018-08-31T00:03:32.444Z,99.90
2018-08-31T00:06:18.922Z,99.90
2018-08-31T00:09:07.887Z,99.90
2018-08-31T00:11:58.745Z,99.90
2018-08-31T00:14:33.674Z,99.90
2018-08-31T00:17:08.876Z,99.90
2018-08-31T00:19:44.334Z,99.90
2018-08-31T00:22:19.252Z,99.90
2018-08-31T00:26:12.582Z,99.90
2018-08-31T00:29:42.386Z,99.90
2018-08-31T00:33:28.646Z,99.90
2018-08-31T00:40:25.242Z,99.90
2018-08-31T00:45:28.706Z,99.90
2018-08-31T00:48:04.148Z,99.90
2018-08-31T00:50:39.717Z,99.90
2018-08-31T00:53:14.503Z,99.90
2018-08-31T00:55:49.827Z,99.90
2018-08-31T00:58:24.632Z,99.90
2018-08-31T01:00:59.789Z,99.90
2018-08-31T01:03:35.235Z,99.90
2018-08-31T01:06:10.198Z,99.90
2018-08-31T01:08:45.724Z,99.90
2018-08-31T01:11:21.580Z,99.90
2018-08-31T01:13:56.829Z,99.90
2018-08-31T01:16:32.484Z,99.90
2018-08-31T01:19:07.608Z,99.90
2018-08-31T01:21:42.756Z,99.90
2018-08-31T01:24:18.839Z,99.90
2018-08-31T01:26:53.648Z,99.90
2018-08-31T01:29:28.894Z,99.90
2018-08-31T01:32:04.634Z,99.90
2018-08-31T01:34:39.804Z,99.90
2018-08-31T01:37:14.677Z,99.90
2018-08-31T01:39:49.769Z,99.90
2018-08-31T01:42:24.775Z,99.90
2018-08-31T01:45:00.061Z,99.90
2018-08-31T01:47:35.772Z,99.90
2018-08-31T01:50:12.537Z,99.90
2018-08-31T01:52:47.432Z,99.90
2018-08-31T01:55:27.601Z,99.90
2018-08-31T01:58:03.054Z,99.90
2018-08-31T02:00:38.375Z,99.90
2018-08-31T02:03:14.287Z,99.90
2018-08-31T02:05:50.140Z,99.90
2018-08-31T02:08:25.225Z,99.90
2018-08-31T02:11:00.093Z,99.90
2018-08-31T02:13:42.031Z,99.90
2018-08-31T02:16:17.227Z,99.90
2018-08-31T02:18:52.237Z,99.90
2018-08-31T02:21:27.295Z,99.90
2018-08-31T02:24:03.676Z,99.90
2018-08-31T02:26:38.995Z,99.90
2018-08-31T02:29:14.850Z,99.90
2018-08-31T02:31:50.097Z,99.90
2018-08-31T02:34:24.996Z,99.90
2018-08-31T02:37:06.726Z,99.90
2018-08-31T02:39:41.996Z,99.90
2018-08-31T02:42:17.603Z,99.90
2018-08-31T02:44:53.152Z,99.90
2018-08-31T02:47:28.161Z,99.90
2018-08-31T02:50:03.775Z,99.90
2018-08-31T02:52:38.915Z,99.90
2018-08-31T02:55:13.864Z,99.90
2018-08-31T02:57:43.420Z,99.90
2018-08-31T03:00:18.628Z,99.90
2018-08-31T03:02:53.670Z,99.90
2018-08-31T03:05:28.778Z,99.90
2018-08-31T03:08:04.000Z,99.90
2018-08-31T03:10:40.306Z,99.90
2018-08-31T03:13:15.119Z,99.90
2018-08-31T03:15:50.159Z,99.90
2018-08-31T03:18:25.229Z,99.90
2018-08-31T03:21:00.566Z,99.90
2018-08-31T03:23:35.358Z,99.90
2018-08-31T03:26:10.374Z,99.90
2018-08-31T03:28:45.356Z,99.90
2018-08-31T03:31:20.719Z,99.90
2018-08-31T03:33:55.940Z,99.90
2018-08-31T03:36:30.979Z,99.90
2018-08-31T03:39:08.430Z,99.90
2018-08-31T03:41:43.612Z,99.90
2018-08-31T03:44:18.573Z,99.90
2018-08-31T03:46:53.412Z,99.90
2018-08-31T03:49:29.013Z,99.90
2018-08-31T03:51:58.195Z,99.90
2018-08-31T03:54:33.049Z,99.90
2018-08-31T03:57:08.316Z,99.90
2018-08-31T03:59:43.713Z,99.90
2018-08-31T04:02:19.411Z,99.90
2018-08-31T04:04:55.168Z,99.90
2018-08-31T04:07:30.418Z,99.90
2018-08-31T04:10:06.602Z,99.90
2018-08-31T04:12:41.654Z,99.90
2018-08-31T04:15:16.897Z,99.90
2018-08-31T04:17:54.681Z,99.90
2018-08-31T04:20:29.744Z,99.90
2018-08-31T04:23:04.989Z,99.90
2018-08-31T04:25:39.914Z,99.90
2018-08-31T04:28:14.998Z,99.90
2018-08-31T04:30:50.002Z,99.90
2018-08-31T04:33:24.743Z,99.90
2018-08-31T04:36:00.369Z,99.90
2018-08-31T04:38:35.427Z,99.90
2018-08-31T04:41:11.444Z,99.90
2018-08-31T04:43:46.503Z,99.90
2018-08-31T04:46:22.151Z,99.90
2018-08-31T04:48:57.523Z,99.90
2018-08-31T04:51:27.605Z,99.90
2018-08-31T04:53:57.250Z,99.90
2018-08-31T04:56:27.358Z,99.90
2018-08-31T04:58:57.213Z,99.90
2018-08-31T05:01:27.515Z,99.90
2018-08-31T05:03:57.093Z,99.90
2018-08-31T05:06:27.014Z,99.90
2018-08-31T05:08:56.271Z,99.90
2018-08-31T05:11:26.590Z,99.90
2018-08-31T05:13:56.503Z,99.90
2018-08-31T05:16:26.495Z,99.90
2018-08-31T05:18:55.983Z,99.90
2018-08-31T05:21:31.704Z,99.90
2018-08-31T05:24:06.774Z,99.90
2018-08-31T05:26:42.153Z,99.90
2018-08-31T05:29:18.505Z,99.90
2018-08-31T05:31:53.526Z,99.90
2018-08-31T05:34:28.897Z,99.90
2018-08-31T05:37:04.005Z,99.90
2018-08-31T05:39:39.286Z,99.90
2018-08-31T05:42:14.537Z,99.90
2018-08-31T05:44:49.866Z,99.90
2018-08-31T05:47:25.544Z,99.90
2018-08-31T05:50:00.721Z,99.90
2018-08-31T05:52:35.832Z,99.90
2018-08-31T05:55:11.214Z,99.90
2018-08-31T05:57:47.053Z,99.90
2018-08-31T06:00:22.219Z,99.90
2018-08-31T06:02:57.262Z,99.90
2018-08-31T06:05:32.787Z,99.90
2018-08-31T06:08:08.250Z,99.90
2018-08-31T06:10:43.668Z,99.90
2018-08-31T06:13:18.996Z,99.90
2018-08-31T06:15:54.139Z,99.90
2018-08-31T06:18:29.483Z,99.90
2018-08-31T06:21:05.010Z,99.90
2018-08-31T06:23:40.643Z,99.90
2018-08-31T06:26:15.921Z,99.90
2018-08-31T06:28:50.826Z,99.90
2018-08-31T06:31:26.011Z,99.90
2018-08-31T06:34:01.100Z,99.90
2018-08-31T06:36:36.620Z,99.90
2018-08-31T06:39:12.056Z,99.90
2018-08-31T06:41:46.951Z,99.90
2018-08-31T06:44:22.225Z,99.90
2018-08-31T06:46:57.357Z,99.90
2018-08-31T06:49:32.372Z,99.90
2018-08-31T06:52:08.010Z,99.90
2018-08-31T06:54:43.061Z,99.90
2018-08-31T06:57:18.309Z,99.90
2018-08-31T06:59:53.570Z,99.90
2018-08-31T07:02:28.824Z,99.90
2018-08-31T07:05:03.824Z,99.90
2018-08-31T07:07:39.747Z,99.90
2018-08-31T07:10:14.705Z,99.90
2018-08-31T07:12:49.973Z,99.90
2018-08-31T07:15:24.650Z,99.90
2018-08-31T07:17:59.804Z,99.90
2018-08-31T07:20:35.025Z,99.90
2018-08-31T07:23:09.937Z,99.90
2018-08-31T07:25:45.017Z,99.90
2018-08-31T07:28:20.034Z,99.90
2018-08-31T07:30:55.381Z,99.90
2018-08-31T07:33:30.521Z,99.90
2018-08-31T07:36:05.763Z,99.90
2018-08-31T07:38:40.697Z,99.90
2018-08-31T07:41:15.979Z,99.90
2018-08-31T07:43:51.977Z,99.90
2018-08-31T07:46:27.343Z,99.90
2018-08-31T07:49:02.789Z,99.90
2018-08-31T07:51:37.673Z,99.90
2018-08-31T07:54:17.087Z,99.90
2018-08-31T07:56:52.246Z,99.90
2018-08-31T07:59:27.192Z,99.90
2018-08-31T08:02:02.795Z,99.90
2018-08-31T08:04:37.873Z,99.90
2018-08-31T08:07:12.871Z,99.90
2018-08-31T08:09:48.376Z,99.90
2018-08-31T08:12:23.578Z,99.90
2018-08-31T08:14:58.620Z,99.90
2018-08-31T08:17:33.935Z,99.90
2018-08-31T08:20:09.222Z,99.90
2018-08-31T08:22:44.386Z,99.90
2018-08-31T08:25:19.770Z,99.90
2018-08-31T08:28:01.301Z,99.90
2018-08-31T08:30:36.519Z,99.90
2018-08-31T08:33:11.866Z,99.90
2018-08-31T08:35:46.925Z,99.90
2018-08-31T08:38:22.869Z,99.90
2018-08-31T08:40:58.035Z,99.90
2018-08-31T08:43:33.239Z,99.90
2018-08-31T08:46:08.325Z,99.90
2018-08-31T08:48:43.730Z,99.90
2018-08-31T08:51:18.865Z,99.90
2018-08-31T08:53:58.891Z,99.90
2018-08-31T08:56:34.417Z,99.90
2018-08-31T08:59:10.021Z,99.90
2018-08-31T09:01:45.114Z,99.90
2018-08-31T09:04:20.534Z,99.90
2018-08-31T09:06:55.773Z,99.90
2018-08-31T09:09:30.925Z,99.90
2018-08-31T09:12:06.694Z,99.90
2018-08-31T09:14:41.852Z,99.90
2018-08-31T09:17:17.906Z,99.90
2018-08-31T09:19:52.929Z,99.90
2018-08-31T09:22:28.360Z,99.90
2018-08-31T09:25:04.241Z,99.90
2018-08-31T09:27:39.275Z,99.90
2018-08-31T09:30:20.066Z,99.90
2018-08-31T09:32:56.110Z,99.90
2018-08-31T09:35:31.088Z,99.90
2018-08-31T09:38:06.820Z,99.90
2018-08-31T09:43:17.515Z,99.90
2018-08-31T09:45:52.418Z,99.90
2018-08-31T09:48:27.254Z,99.90
2018-08-31T09:56:11.629Z,99.90
2018-08-31T09:58:46.771Z,99.90
2018-08-31T10:01:27.695Z,99.90
2018-08-31T10:04:06.177Z,99.90
2018-08-31T10:06:41.087Z,99.90
2018-08-31T10:09:16.148Z,99.90
2018-08-31T10:11:52.083Z,99.90
2018-08-31T10:14:27.119Z,99.90
2018-08-31T10:17:01.824Z,99.90
2018-08-31T10:19:37.191Z,99.90
2018-08-31T10:22:13.316Z,99.90
2018-08-31T10:24:48.683Z,99.90
2018-08-31T10:27:24.319Z,99.90
2018-08-31T10:29:59.633Z,99.90
2018-08-31T10:32:35.013Z,99.90
2018-08-31T10:35:10.362Z,99.90
2018-08-31T10:37:45.546Z,99.90
2018-08-31T10:40:20.817Z,99.90
2018-08-31T10:42:59.111Z,99.90
2018-08-31T10:45:33.957Z,99.90
2018-08-31T10:48:09.309Z,99.90
2018-08-31T10:50:44.767Z,99.90
2018-08-31T10:53:19.993Z,99.90
2018-08-31T10:55:55.123Z,99.90
2018-08-31T10:58:24.454Z,99.90
2018-08-31T11:00:59.356Z,99.90
2018-08-31T11:03:34.453Z,99.90
2018-08-31T11:06:09.542Z,99.90
2018-08-31T11:08:44.909Z,99.90
2018-08-31T11:11:20.091Z,99.90
2018-08-31T11:13:55.672Z,99.90
2018-08-31T11:16:31.041Z,99.90
2018-08-31T11:19:06.436Z,99.90
2018-08-31T11:21:41.623Z,99.90
2018-08-31T11:24:17.287Z,99.90
2018-08-31T11:26:50.040Z,99.90
2018-08-31T11:29:26.212Z,99.70
2018-08-31T11:32:01.098Z,99.90
2018-08-31T11:34:37.125Z,99.90
2018-08-31T11:37:12.121Z,99.20
2018-08-31T11:39:47.486Z,99.20
2018-08-31T11:42:22.469Z,99.20
2018-08-31T11:44:57.571Z,99.10
2018-08-31T11:47:32.778Z,98.30
2018-08-31T11:50:08.129Z,97.00
2018-08-31T11:52:43.003Z,95.00
2018-08-31T11:55:18.071Z,95.80
2018-08-31T11:57:53.457Z,95.10
2018-08-31T12:00:28.931Z,94.40
2018-08-31T12:03:06.050Z,94.00
2018-08-31T12:05:41.038Z,92.40
2018-08-31T12:08:16.890Z,92.60
2018-08-31T12:10:52.236Z,93.00
2018-08-31T12:13:27.126Z,92.70
2018-08-31T12:16:02.307Z,91.50
2018-08-31T12:18:37.241Z,89.10
2018-08-31T12:21:12.745Z,88.00
2018-08-31T12:23:48.662Z,86.80
2018-08-31T12:26:23.933Z,86.30
2018-08-31T12:28:58.874Z,87.20
2018-08-31T12:31:33.889Z,82.70
2018-08-31T12:34:09.842Z,79.80
2018-08-31T12:36:45.043Z,79.40
2018-08-31T12:39:20.616Z,81.10
2018-08-31T12:41:55.388Z,80.40
2018-08-31T12:44:31.949Z,78.80
2018-08-31T12:47:06.985Z,78.50
2018-08-31T12:49:42.620Z,78.30
2018-08-31T12:52:18.343Z,76.80
2018-08-31T12:54:53.438Z,76.20
2018-08-31T12:57:28.428Z,75.90
2018-08-31T13:00:03.749Z,76.70
2018-08-31T13:02:39.114Z,77.20
2018-08-31T13:05:14.857Z,73.60
2018-08-31T13:07:50.503Z,71.10
2018-08-31T13:10:26.122Z,70.40
2018-08-31T13:13:01.295Z,71.30
2018-08-31T13:15:36.884Z,70.10
2018-08-31T13:18:11.798Z,69.80
2018-08-31T13:20:47.141Z,69.50
2018-08-31T13:23:22.294Z,68.70
2018-08-31T13:25:58.279Z,69.90
2018-08-31T13:28:33.807Z,70.30
2018-08-31T13:31:08.824Z,70.90
2018-08-31T13:33:44.465Z,71.70
2018-08-31T13:36:20.868Z,71.40
2018-08-31T13:38:55.965Z,71.50
2018-08-31T13:41:31.027Z,72.00
2018-08-31T13:44:06.194Z,70.50
2018-08-31T13:46:41.766Z,69.40
2018-08-31T13:49:17.409Z,69.80
2018-08-31T13:51:52.899Z,70.90
2018-08-31T13:54:27.687Z,71.50
2018-08-31T13:57:02.862Z,71.80
2018-08-31T13:59:37.811Z,71.60
2018-08-31T14:02:12.903Z,72.10
2018-08-31T14:04:48.126Z,71.50
2018-08-31T14:07:23.449Z,72.40
2018-08-31T14:09:58.515Z,73.10
2018-08-31T14:12:34.482Z,74.70
2018-08-31T14:15:10.260Z,75.00
2018-08-31T14:17:45.593Z,76.50
2018-08-31T14:20:21.626Z,76.70
2018-08-31T14:22:57.639Z,78.50
2018-08-31T14:25:33.889Z,79.30
2018-08-31T14:28:08.957Z,78.20
2018-08-31T14:30:44.063Z,79.80
2018-08-31T14:33:18.981Z,77.10
2018-08-31T14:35:54.126Z,75.20
2018-08-31T14:38:28.910Z,76.00
2018-08-31T14:41:04.483Z,77.40
2018-08-31T14:43:39.595Z,76.50
2018-08-31T14:46:14.784Z,75.10
2018-08-31T14:48:50.461Z,72.80
2018-08-31T14:51:25.380Z,72.50
2018-08-31T14:54:01.164Z,72.30
2018-08-31T14:56:36.472Z,74.20
2018-08-31T14:59:11.498Z,74.70
2018-08-31T15:01:46.564Z,75.30
2018-08-31T15:04:22.125Z,74.50
2018-08-31T15:06:57.184Z,75.20
2018-08-31T15:09:32.345Z,76.20
2018-08-31T15:12:07.501Z,64.80
2018-08-31T15:14:42.729Z,64.00
2018-08-31T15:17:17.979Z,65.00
2018-08-31T15:19:53.218Z,64.30
2018-08-31T15:22:28.052Z,64.90
2018-08-31T15:25:03.218Z,63.40
2018-08-31T15:27:39.045Z,64.20
2018-08-31T15:30:14.237Z,62.60
2018-08-31T15:32:50.254Z,62.80
2018-08-31T15:35:25.508Z,63.50
2018-08-31T15:38:00.750Z,63.80
2018-08-31T15:40:35.848Z,63.70
2018-08-31T15:43:11.608Z,61.20
2018-08-31T15:45:41.574Z,60.70
2018-08-31T15:48:11.001Z,61.70
2018-08-31T15:50:46.126Z,61.40
2018-08-31T15:53:21.175Z,60.30
2018-08-31T15:55:56.574Z,59.80
2018-08-31T15:58:31.683Z,59.40
2018-08-31T16:01:07.205Z,58.90
2018-08-31T16:03:42.530Z,58.80
2018-08-31T16:06:18.320Z,57.70
2018-08-31T16:09:00.488Z,58.20
2018-08-31T16:11:35.647Z,58.20
2018-08-31T16:14:10.618Z,58.80
2018-08-31T16:16:45.648Z,59.60
2018-08-31T16:19:20.837Z,61.10
2018-08-31T16:21:57.040Z,60.90
2018-08-31T16:24:32.950Z,61.80
2018-08-31T16:27:08.452Z,62.20
2018-08-31T16:29:43.786Z,61.60
2018-08-31T16:32:19.372Z,60.50
2018-08-31T16:34:55.827Z,61.10
2018-08-31T16:37:26.506Z,60.10
2018-08-31T16:40:01.515Z,59.90
2018-08-31T16:42:36.641Z,59.80
2018-08-31T16:45:12.334Z,59.80
2018-08-31T16:47:47.563Z,60.40
2018-08-31T16:50:22.765Z,60.50
2018-08-31T16:52:57.685Z,59.80
2018-08-31T16:55:33.809Z,59.50
2018-08-31T16:58:03.705Z,59.70
2018-08-31T17:00:40.692Z,59.60
2018-08-31T17:03:15.971Z,59.80
2018-08-31T17:05:50.879Z,59.90
2018-08-31T17:08:27.328Z,60.10
2018-08-31T17:11:02.189Z,60.90
2018-08-31T17:13:37.407Z,61.30
2018-08-31T17:16:13.120Z,62.30
2018-08-31T17:18:42.967Z,63.60
2018-08-31T17:21:18.842Z,64.60
2018-08-31T17:23:54.081Z,66.00
2018-08-31T17:26:41.666Z,67.10
2018-08-31T17:29:22.297Z,68.20
2018-08-31T17:32:02.687Z,68.90
2018-08-31T17:34:43.012Z,69.40
2018-08-31T17:37:23.301Z,70.00
2018-08-31T17:39:58.658Z,70.50
2018-08-31T17:42:38.255Z,70.40
2018-08-31T17:45:18.081Z,70.40
2018-08-31T17:47:53.696Z,71.40
2018-08-31T17:50:29.132Z,71.70
2018-08-31T17:53:04.549Z,71.90
2018-08-31T17:55:39.624Z,71.60
2018-08-31T17:58:15.371Z,72.10
2018-08-31T18:00:50.438Z,72.40
2018-08-31T18:03:25.957Z,73.00
2018-08-31T18:06:05.039Z,73.70
2018-08-31T18:08:40.544Z,74.60
2018-08-31T18:11:15.730Z,75.20
2018-08-31T18:13:51.163Z,75.90
2018-08-31T18:16:26.609Z,76.50
2018-08-31T18:19:02.276Z,76.80
2018-08-31T18:21:38.251Z,77.30
2018-08-31T18:24:13.738Z,77.70
2018-08-31T18:26:48.968Z,78.10
2018-08-31T18:29:24.284Z,78.40
2018-08-31T18:31:59.588Z,78.20
2018-08-31T18:34:36.789Z,78.40
2018-08-31T18:37:12.665Z,78.90
2018-08-31T18:39:48.441Z,79.60
2018-08-31T18:42:23.779Z,80.60
2018-08-31T18:44:59.352Z,81.80
2018-08-31T18:47:34.394Z,82.90
2018-08-31T18:50:09.569Z,84.00
2018-08-31T18:52:44.939Z,85.20
2018-08-31T18:55:20.130Z,86.20
2018-08-31T18:57:56.029Z,87.50
2018-08-31T19:00:31.911Z,88.70
2018-08-31T19:03:07.465Z,89.90
2018-08-31T19:05:42.577Z,90.60
2018-08-31T19:08:17.993Z,91.20
2018-08-31T19:10:54.004Z,91.70
2018-08-31T19:13:29.119Z,92.20
2018-08-31T19:16:05.309Z,92.80
2018-08-31T19:18:40.483Z,93.30
2018-08-31T19:21:16.187Z,93.90
2018-08-31T19:23:51.406Z,94.10
2018-08-31T19:26:26.661Z,94.60
2018-08-31T19:29:01.709Z,95.00
2018-08-31T19:31:37.889Z,95.40
2018-08-31T19:34:13.522Z,95.80
2018-08-31T19:36:48.718Z,96.20
2018-08-31T19:39:24.338Z,96.50
2018-08-31T19:41:59.607Z,97.00
2018-08-31T19:44:34.871Z,97.50
2018-08-31T19:47:10.867Z,98.00
2018-08-31T19:49:46.257Z,98.40
2018-08-31T19:52:21.700Z,99.00
2018-08-31T19:54:56.831Z,99.30
2018-08-31T19:57:31.923Z,99.80
2018-08-31T20:00:07.534Z,99.90
2018-08-31T20:02:43.064Z,99.90
2018-08-31T20:05:18.439Z,99.90
2018-08-31T20:07:54.403Z,99.90
2018-08-31T20:10:29.636Z,99.90
2018-08-31T20:13:05.604Z,99.90
2018-08-31T20:15:41.611Z,99.90
2018-08-31T20:18:16.881Z,99.90
2018-08-31T20:20:52.381Z,99.90
2018-08-31T20:23:34.251Z,99.90
2018-08-31T20:26:09.634Z,99.90
2018-08-31T20:28:44.701Z,99.90
2018-08-31T20:31:20.015Z,99.90
2018-08-31T20:33:55.363Z,99.90
2018-08-31T20:36:37.297Z,99.90
2018-08-31T20:39:13.229Z,99.90
2018-08-31T20:41:48.464Z,99.90
2018-08-31T20:44:23.482Z,99.90
2018-08-31T20:46:58.380Z,99.90
2018-08-31T20:49:33.599Z,99.90
2018-08-31T20:52:08.890Z,99.90
2018-08-31T20:54:44.340Z,99.90
2018-08-31T20:57:19.427Z,99.90
2018-08-31T20:59:57.619Z,99.90
2018-08-31T21:02:32.944Z,99.90
2018-08-31T21:05:08.206Z,99.90
2018-08-31T21:07:43.634Z,99.90
2018-08-31T21:10:19.033Z,99.90
2018-08-31T21:12:54.565Z,99.90
2018-08-31T21:15:29.637Z,99.90
2018-08-31T21:18:04.832Z,99.90
2018-08-31T21:20:44.439Z,99.90
2018-08-31T21:23:19.607Z,99.90
2018-08-31T21:25:54.929Z,99.90
2018-08-31T21:28:30.099Z,99.90
2018-08-31T21:31:06.202Z,99.90
2018-08-31T21:33:41.836Z,99.90
2018-08-31T21:36:17.180Z,99.90
2018-08-31T21:38:52.394Z,99.90
2018-08-31T21:41:27.192Z,99.90
2018-08-31T21:44:02.358Z,99.90
2018-08-31T21:46:37.661Z,99.90
2018-08-31T21:49:13.169Z,99.90
2018-08-31T21:51:48.535Z,99.90
2018-08-31T21:54:23.809Z,99.90
2018-08-31T21:56:58.827Z,99.90
2018-08-31T21:59:34.981Z,99.90
2018-08-31T22:02:10.755Z,99.90
2018-08-31T22:04:45.944Z,99.90
2018-08-31T22:07:22.033Z,99.90
2018-08-31T22:09:57.340Z,99.90
2018-08-31T22:12:32.542Z,99.90
2018-08-31T22:15:14.976Z,99.90
2018-08-31T22:17:50.925Z,99.90
2018-08-31T22:20:25.941Z,99.90
2018-08-31T22:23:01.039Z,99.90
2018-08-31T22:25:35.813Z,99.90
2018-08-31T22:28:10.832Z,99.90
2018-08-31T22:30:46.283Z,99.90
2018-08-31T22:33:21.519Z,99.90
2018-08-31T22:35:57.104Z,99.90
2018-08-31T22:38:32.436Z,99.90
2018-08-31T22:41:07.661Z,99.90
2018-08-31T22:43:48.096Z,99.90
2018-08-31T22:46:24.235Z,99.90
2018-08-31T22:48:59.286Z,99.90
2018-08-31T22:51:34.225Z,99.90
2018-08-31T22:54:09.156Z,99.90
2018-08-31T22:56:44.833Z,99.90
2018-08-31T22:59:22.831Z,99.90
2018-08-31T23:01:57.989Z,99.90
2018-08-31T23:04:33.063Z,99.90
2018-08-31T23:07:12.492Z,99.90
2018-08-31T23:09:48.015Z,99.90
2018-08-31T23:12:23.073Z,99.90
2018-08-31T23:14:58.275Z,99.90
2018-08-31T23:17:33.242Z,99.90
2018-08-31T23:20:08.142Z,99.90
2018-08-31T23:22:43.492Z,99.90
2018-08-31T23:25:23.637Z,99.90
2018-08-31T23:27:58.942Z,99.90
2018-08-31T23:30:33.974Z,99.90
2018-08-31T23:33:08.864Z,99.90
2018-08-31T23:35:44.258Z,99.90
2018-08-31T23:38:19.405Z,99.90
2018-08-31T23:40:54.629Z,99.90
2018-08-31T23:43:29.569Z,99.90
2018-08-31T23:46:05.195Z,99.90
2018-08-31T23:48:41.218Z,99.90
2018-08-31T23:51:16.271Z,99.90
2018-08-31T23:53:51.609Z,99.90
2018-08-31T23:56:26.467Z,99.90
2018-08-31T23:59:01.756Z,99.90
